This is the latest recevied weather packets stored in our database for station/object KE8AFF-13. If no packets are shown the sender has not sent any weather packets the latest 10 day(s).
| Time | Temp. | Humidity | Pressure | Rain* | Wind** | Luminosity | Snow |
|---|---|---|---|---|---|---|---|
| 1777422096 | 15.56° C | 81% | 1012.7 hPa | 0 mm | - | 3 W/m² | - |
| 1777421795 | 15.56° C | 80% | 1012.3 hPa | 0 mm | - | 4 W/m² | - |
| 1777421492 | 15.56° C | 80% | 1012.6 hPa | 0 mm | - | 8 W/m² | - |
| 1777421188 | 15.56° C | 80% | 1012.8 hPa | 0 mm | - | 11 W/m² | - |
| 1777420884 | 16.11° C | 80% | 1012.4 hPa | 0 mm | - | 17 W/m² | - |
| 1777420581 | 16.11° C | 79% | 1012.2 hPa | 0 mm | - | 21 W/m² | - |
| 1777420276 | 16.11° C | 79% | 1012.3 hPa | 0 mm | - | 29 W/m² | - |
| 1777419971 | 16.11° C | 78% | 1012.2 hPa | 0 mm | - | 32 W/m² | - |
| 1777419669 | 16.67° C | 78% | 1012.2 hPa | 0 mm | - | 33 W/m² | - |
| 1777419367 | 16.67° C | 78% | 1012.3 hPa | 0 mm | - | 34 W/m² | - |
| 1777419066 | 16.67° C | 78% | 1012.3 hPa | 0 mm | - | 36 W/m² | - |
| 1777418765 | 16.67° C | 77% | 1012.5 hPa | 0 mm | - | 44 W/m² | - |
| 1777418463 | 17.22° C | 77% | 1012.5 hPa | 0 mm | - | 46 W/m² | - |
| 1777418158 | 17.22° C | 76% | 1012.8 hPa | 0 mm | - | 49 W/m² | - |
| 1777417855 | 17.78° C | 75% | 1012.6 hPa | 0 mm | - | 79 W/m² | - |
| 1777417550 | 18.33° C | 74% | 1012.5 hPa | 0 mm | - | 102 W/m² | - |
| 1777417247 | 17.78° C | 74% | 1012.3 hPa | 0 mm | - | 104 W/m² | - |
| 1777416943 | 18.33° C | 74% | 1012.5 hPa | 0 mm | - | 131 W/m² | - |
| 1777416638 | 18.33° C | 73% | 1012.7 hPa | 0 mm | - | 144 W/m² | - |
| 1777416334 | 18.33° C | 73% | 1012.8 hPa | 0 mm | - | 163 W/m² | - |
| 1777416033 | 18.33° C | 72% | 1012.9 hPa | 0 mm | - | 183 W/m² | - |
| 1777415730 | 18.89° C | 72% | 1012.7 hPa | 0 mm | - | 201 W/m² | - |
| 1777415425 | 18.89° C | 72% | 1012.7 hPa | 0 mm | - | 222 W/m² | - |
| 1777415120 | 18.33° C | 73% | 1013 hPa | 0 mm | - | 118 W/m² | - |
| 1777414815 | 18.33° C | 74% | 1012.9 hPa | 0 mm | - | 106 W/m² | - |
* Rain latest hour (hover to see other rain measurements)
** Current wind speed in m/s (hover to see current wind gust speed)